Time;durP1;ratioP1;P1;durP2;ratioP2;P2;SDS_P1;SDS_P2;PMS_P1;PMS_P2;Temp;Humidity;BMP_temperature;BMP_pressure;BME280_temperature;BME280_humidity;BME280_pressure;Samples;Min_cycle;Max_cycle;Signal;HPM_P1;HPM_P2
2021/12/29 00:06:00;;;;;;;2.03;1.40;;;;;;;14.55;53.65;99294.38;19732732;30;20083;-75
2021/12/29 00:16:02;;;;;;;1.88;1.55;;;;;;;14.13;54.09;99252.16;19732489;30;20113;-75
2021/12/29 00:26:04;;;;;;;2.00;1.40;;;;;;;14.89;54.10;99392.84;19733378;30;20125;-75
2021/12/29 00:36:06;;;;;;;2.40;1.40;;;;;;;14.32;53.85;99310.06;19740224;30;20060;-75
2021/12/29 00:46:28;;;;;;;1.95;1.38;;;;;;;14.87;54.09;99424.28;19726837;30;20090;-75
2021/12/29 00:56:30;;;;;;;2.30;1.40;;;;;;;14.67;53.88;99426.25;19744426;30;20158;-75
2021/12/29 01:06:31;;;;;;;2.33;1.17;;;;;;;14.78;53.81;99473.44;19744313;30;20566;-75
2021/12/29 01:26:37;;;;;;;1.70;1.33;;;;;;;14.85;53.99;99527.28;20172535;24;20083;-71
2021/12/29 01:36:40;;;;;;;2.53;1.60;;;;;;;14.33;53.89;99483.94;19726020;30;20059;-71
2021/12/29 01:46:43;;;;;;;1.30;1.20;;;;;;;14.81;53.89;99599.06;19725081;30;20059;-71
2021/12/29 01:56:45;;;;;;;2.17;1.35;;;;;;;14.37;53.76;99543.41;19754714;30;20059;-71
2021/12/29 02:06:47;;;;;;;2.20;1.58;;;;;;;14.85;54.17;99621.88;19724437;30;20541;-71
2021/12/29 02:16:49;;;;;;;3.15;2.13;;;;;;;14.42;54.04;99567.91;19739389;30;20105;-72
2021/12/29 02:26:51;;;;;;;3.38;1.80;;;;;;;14.81;54.09;99636.56;19738655;30;20494;-74
2021/12/29 02:36:54;;;;;;;3.17;1.90;;;;;;;14.86;54.22;99657.59;19722465;30;20064;-72
2021/12/29 02:46:58;;;;;;;2.95;1.85;;;;;;;14.61;54.13;99639.31;19737255;30;20116;-71
2021/12/29 02:56:59;;;;;;;2.72;1.52;;;;;;;14.38;54.08;99595.09;19737080;30;20060;-72
2021/12/29 03:07:02;;;;;;;1.98;1.35;;;;;;;14.73;54.39;99679.34;19735111;30;20064;-71
2021/12/29 03:17:06;;;;;;;2.83;1.63;;;;;;;14.43;53.88;99633.84;19720473;30;20056;-71
2021/12/29 03:27:08;;;;;;;2.40;1.58;;;;;;;14.86;54.06;99729.94;19734032;30;20113;-74
2021/12/29 03:37:10;;;;;;;2.50;1.95;;;;;;;14.85;54.04;99749.69;19735319;30;20063;-71
2021/12/29 03:47:12;;;;;;;3.85;1.98;;;;;;;14.47;54.49;99699.50;19735136;30;20064;-71
2021/12/29 03:57:13;;;;;;;2.65;2.05;;;;;;;14.43;54.06;99697.25;19734607;30;20055;-71
2021/12/29 04:07:15;;;;;;;2.85;2.20;;;;;;;14.42;54.28;99708.94;19736166;30;20466;-71
2021/12/29 04:17:18;;;;;;;4.35;2.70;;;;;;;14.56;54.28;99766.59;19747933;30;20051;-71
2021/12/29 04:27:25;;;;;;;3.08;2.13;;;;;;;14.80;54.21;99809.03;19747045;30;20067;-71
2021/12/29 04:37:27;;;;;;;2.33;1.67;;;;;;;14.86;54.15;99837.13;19748081;30;20567;-71
2021/12/29 04:47:30;;;;;;;2.60;1.90;;;;;;;14.14;54.52;99744.47;19745930;30;20473;-71
2021/12/29 04:57:32;;;;;;;2.38;1.92;;;;;;;14.93;54.81;99865.88;19744165;30;20125;-72
2021/12/29 05:17:58;;;;;;;2.17;1.88;;;;;;;15.21;54.42;99884.75;19742820;30;20491;-73
2021/12/29 05:28:00;;;;;;;1.95;1.75;;;;;;;14.84;54.19;99829.19;19741861;30;20490;-73
2021/12/29 05:38:02;;;;;;;2.53;1.83;;;;;;;15.30;54.27;99911.69;19756479;30;20063;-73
2021/12/29 05:48:04;;;;;;;1.48;1.10;;;;;;;15.15;53.87;99890.69;19741797;30;20056;-73
2021/12/29 05:58:06;;;;;;;2.08;1.33;;;;;;;15.42;53.97;99940.03;19725145;30;20068;-73
2021/12/29 06:08:08;;;;;;;2.17;1.10;;;;;;;15.35;54.13;99906.72;19740232;30;20576;-74
2021/12/29 06:18:10;;;;;;;2.03;1.40;;;;;;;15.92;53.86;99973.03;19739644;30;20064;-73
2021/12/29 06:28:11;;;;;;;2.97;1.42;;;;;;;15.70;54.15;99915.97;19738949;30;20071;-73
2021/12/29 06:38:18;;;;;;;1.60;1.33;;;;;;;16.06;53.73;99961.81;19738028;30;20113;-74
2021/12/29 06:48:20;;;;;;;2.55;1.33;;;;;;;16.34;53.98;100031.63;19737528;30;20060;-73
2021/12/29 06:58:22;;;;;;;3.47;1.50;;;;;;;16.37;54.18;100027.81;19736973;30;20074;-73
2021/12/29 07:08:24;;;;;;;2.75;1.90;;;;;;;15.93;54.24;99963.97;19720308;30;20056;-74
2021/12/29 07:18:25;;;;;;;1.63;1.30;;;;;;;16.33;54.56;100062.19;19735982;30;20109;-73
2021/12/29 07:28:27;;;;;;;1.80;1.20;;;;;;;15.93;54.55;99998.88;19735211;30;20063;-74
2021/12/29 07:38:29;;;;;;;3.60;1.58;;;;;;;15.97;54.73;100012.84;19735044;30;20109;-74
2021/12/29 07:48:31;;;;;;;1.23;1.00;;;;;;;15.95;55.16;100008.44;19746549;30;20567;-73
2021/12/29 07:58:34;;;;;;;1.55;1.10;;;;;;;16.47;55.06;100097.66;19749807;30;20069;-73
2021/12/29 08:08:36;;;;;;;3.80;1.52;;;;;;;16.56;55.33;100114.69;19732833;30;20090;-73
2021/12/29 08:18:38;;;;;;;2.53;1.23;;;;;;;16.12;55.50;100062.38;19746778;30;20068;-72
2021/12/29 08:28:40;;;;;;;2.28;1.30;;;;;;;16.49;55.73;100130.59;19745760;30;20060;-73
2021/12/29 08:38:46;;;;;;;2.65;1.50;;;;;;;16.53;55.59;100142.72;19745473;30;20438;-73
2021/12/29 08:48:48;;;;;;;2.42;1.40;;;;;;;16.17;55.88;100078.06;19745786;30;20159;-73
2021/12/29 08:58:51;;;;;;;3.22;1.40;;;;;;;16.27;55.72;100103.06;19744971;30;20063;-73
2021/12/29 09:08:54;;;;;;;3.47;1.40;;;;;;;16.18;55.84;100086.00;19758460;30;20056;-73
2021/12/29 09:18:56;;;;;;;3.13;1.63;;;;;;;16.65;55.61;100165.75;19742718;30;20059;-73
2021/12/29 09:28:58;;;;;;;1.60;1.40;;;;;;;16.18;55.60;100096.75;19743438;30;20071;-72
2021/12/29 09:39:00;;;;;;;1.63;1.30;;;;;;;16.55;55.42;100182.88;19742587;30;20055;-72
2021/12/29 09:49:02;;;;;;;2.03;1.48;;;;;;;16.47;55.25;100164.81;19740558;30;20067;-72
2021/12/29 09:59:04;;;;;;;2.90;1.48;;;;;;;16.55;55.28;100148.81;19739932;30;20172;-73
2021/12/29 10:09:12;;;;;;;2.55;1.48;;;;;;;16.71;55.73;100198.41;19739807;30;20105;-75
2021/12/29 10:19:15;;;;;;;2.78;1.30;;;;;;;16.75;55.87;100179.16;19739452;30;20059;-75
2021/12/29 10:29:20;;;;;;;2.92;1.10;;;;;;;16.74;55.80;100192.72;19738893;30;20067;-74
2021/12/29 10:39:32;;;;;;;4.05;1.35;;;;;;;16.71;55.86;100184.97;19738523;30;20476;-73
2021/12/29 10:49:33;;;;;;;1.35;1.02;;;;;;;16.71;55.82;100193.88;19737505;30;20063;-73
2021/12/29 10:59:41;;;;;;;1.70;0.98;;;;;;;16.68;55.71;100181.56;19738366;30;20449;-73
2021/12/29 11:09:43;;;;;;;1.77;1.00;;;;;;;16.73;55.39;100185.66;19736759;30;20055;-73
2021/12/29 11:19:50;;;;;;;1.85;1.20;;;;;;;16.72;55.25;100202.78;19735177;30;20052;-73
2021/12/29 11:29:54;;;;;;;2.85;1.50;;;;;;;16.66;55.16;100217.66;19735777;30;20068;-73
2021/12/29 11:39:56;;;;;;;3.47;1.42;;;;;;;16.75;55.19;100218.63;19735189;30;20068;-73
2021/12/29 11:49:58;;;;;;;1.80;0.90;;;;;;;16.31;55.19;100168.09;19718781;30;20056;-73
2021/12/29 12:00:26;;;;;;;1.60;0.70;;;;;;;16.24;54.90;100159.75;19734502;30;20051;-74
2021/12/29 12:10:35;;;;;;;1.98;0.80;;;;;;;16.38;55.09;100162.00;19733121;30;20063;-74
2021/12/29 12:20:43;;;;;;;2.05;0.80;;;;;;;16.78;54.72;100264.88;19733746;30;20063;-73
2021/12/29 12:30:46;;;;;;;2.25;1.23;;;;;;;16.43;54.76;100152.66;19738850;30;20130;-72
2021/12/29 12:41:05;;;;;;;1.80;0.70;;;;;;;16.43;54.85;100134.69;19730692;30;20048;-75
2021/12/29 12:51:16;;;;;;;2.95;0.95;;;;;;;16.78;55.22;100183.38;19744902;30;20416;-74
2021/12/29 13:01:23;;;;;;;1.77;1.00;;;;;;;16.77;55.19;100182.53;19745274;30;20472;-75
2021/12/29 13:11:25;;;;;;;3.83;1.20;;;;;;;16.67;55.71;100126.13;19744752;30;20063;-75
2021/12/29 13:21:30;;;;;;;3.08;1.10;;;;;;;16.75;55.66;100138.84;19743678;30;20117;-74
2021/12/29 13:31:32;;;;;;;2.57;0.93;;;;;;;16.72;55.55;100127.53;19727265;30;20063;-75
2021/12/29 13:41:36;;;;;;;2.10;0.90;;;;;;;16.78;55.50;100130.47;19741473;30;20793;-74
2021/12/29 13:51:43;;;;;;;2.47;0.90;;;;;;;16.35;55.66;100025.31;19741626;30;20067;-74
2021/12/29 14:01:48;;;;;;;3.45;1.45;;;;;;;16.53;55.31;100057.56;19740923;30;20109;-74
2021/12/29 14:11:51;;;;;;;3.63;1.30;;;;;;;16.71;55.36;100098.94;19740351;30;20066;-74
2021/12/29 14:21:54;;;;;;;3.42;1.13;;;;;;;16.82;55.29;100153.38;19739627;30;20094;-74
2021/12/29 14:31:56;;;;;;;3.22;1.10;;;;;;;16.37;55.18;100068.13;19738799;30;20082;-75
2021/12/29 14:42:13;;;;;;;4.55;1.35;;;;;;;16.51;55.20;100064.13;19738168;30;20051;-74
2021/12/29 14:52:17;;;;;;;5.03;1.88;;;;;;;16.72;55.40;100093.44;19721726;30;20110;-75
2021/12/29 15:02:24;;;;;;;4.28;1.10;;;;;;;16.45;55.03;99984.94;19721242;30;20060;-75
2021/12/29 15:12:28;;;;;;;3.38;1.20;;;;;;;16.42;54.99;99968.28;19736661;30;20498;-75
2021/12/29 15:22:30;;;;;;;3.10;1.20;;;;;;;16.49;55.11;99982.81;19735726;30;20134;-75
2021/12/29 15:32:32;;;;;;;1.55;1.00;;;;;;;16.43;55.25;99976.19;19735381;30;20522;-75
2021/12/29 15:42:35;;;;;;;2.42;1.38;;;;;;;16.48;54.88;99998.06;19734799;30;20067;-75
2021/12/29 15:52:37;;;;;;;3.03;1.10;;;;;;;16.88;54.86;100041.72;19734738;30;20083;-75
2021/12/29 16:02:40;;;;;;;3.50;1.10;;;;;;;16.89;54.95;100013.84;19735517;30;20131;-73
2021/12/29 16:12:43;;;;;;;1.55;1.08;;;;;;;16.52;55.09;99947.59;19749165;30;20494;-72
2021/12/29 16:22:45;;;;;;;2.50;1.45;;;;;;;16.78;55.27;99974.56;19762025;30;20063;-73
2021/12/29 16:32:47;;;;;;;4.00;1.30;;;;;;;16.67;55.19;99948.75;19747432;30;20066;-73
2021/12/29 16:42:50;;;;;;;3.33;1.13;;;;;;;16.60;55.25;99934.22;19730691;30;20060;-73
2021/12/29 16:52:52;;;;;;;2.28;1.38;;;;;;;16.46;55.02;99881.03;19745947;30;20453;-73
2021/12/29 17:02:54;;;;;;;3.08;1.33;;;;;;;16.86;55.11;99933.50;19745387;30;20407;-73
2021/12/29 17:12:57;;;;;;;2.63;1.20;;;;;;;16.56;55.07;99889.84;19728502;30;20055;-73
2021/12/29 17:22:59;;;;;;;2.20;1.35;;;;;;;16.96;54.98;99960.28;19727869;30;20128;-73
2021/12/29 17:33:02;;;;;;;1.33;1.08;;;;;;;16.65;54.79;99872.81;19743305;30;20147;-73
2021/12/29 17:43:04;;;;;;;1.88;1.20;;;;;;;17.03;54.97;99933.69;19756063;29;20063;-73
2021/12/29 17:53:07;;;;;;;1.08;0.90;;;;;;;16.74;54.80;99871.06;19741742;30;20568;-72
2021/12/29 18:03:09;;;;;;;1.02;0.80;;;;;;;16.38;54.70;99806.56;19742055;30;20561;-72
2021/12/29 18:13:11;;;;;;;1.30;0.90;;;;;;;17.09;54.81;99925.84;19740221;30;20063;-73
2021/12/29 18:23:13;;;;;;;1.30;1.08;;;;;;;16.61;54.86;99855.31;19739383;30;20113;-73
2021/12/29 18:33:14;;;;;;;1.05;0.82;;;;;;;16.52;54.83;99826.69;19738664;30;20067;-73
2021/12/29 18:43:17;;;;;;;0.82;0.80;;;;;;;16.65;54.92;99851.31;19738166;30;20059;-73
2021/12/29 18:53:19;;;;;;;0.75;0.70;;;;;;;16.67;54.72;99851.19;19737580;30;20060;-73
2021/12/29 19:03:22;;;;;;;1.52;0.90;;;;;;;16.28;54.63;99779.78;19736814;30;20055;-73
2021/12/29 19:13:24;;;;;;;1.00;0.80;;;;;;;16.56;54.75;99865.69;19749850;30;20063;-73
2021/12/29 19:23:26;;;;;;;0.80;0.70;;;;;;;17.07;54.74;99953.88;19735623;30;20056;-73
2021/12/29 19:33:27;;;;;;;1.05;0.80;;;;;;;17.00;54.70;99987.75;19735421;30;20063;-73
2021/12/29 19:43:29;;;;;;;0.52;0.52;;;;;;;16.93;54.93;100011.69;19735035;30;20060;-73
2021/12/29 19:53:31;;;;;;;1.08;0.80;;;;;;;16.65;55.20;99983.00;19734690;30;20060;-73
2021/12/29 20:03:33;;;;;;;1.50;1.00;;;;;;;16.76;54.97;100034.84;19734297;30;20133;-73
2021/12/29 20:13:36;;;;;;;1.50;1.13;;;;;;;16.31;55.34;99980.06;19734063;30;20147;-72
2021/12/29 20:23:38;;;;;;;1.10;0.90;;;;;;;16.34;55.17;100037.00;19747351;30;20068;-73
2021/12/29 20:33:42;;;;;;;1.80;1.27;;;;;;;16.12;55.63;99997.94;19732451;30;20083;-73
2021/12/29 20:43:44;;;;;;;1.52;1.17;;;;;;;16.42;55.82;100065.84;19732160;30;20964;-73
2021/12/29 20:53:46;;;;;;;0.80;0.70;;;;;;;16.41;55.94;100101.75;19740476;30;20236;-73
2021/12/29 21:03:48;;;;;;;2.38;1.10;;;;;;;16.33;55.98;100132.00;19729229;30;20055;-73
2021/12/29 21:13:50;;;;;;;2.22;1.00;;;;;;;16.16;55.83;100135.44;19728864;30;20051;-73
2021/12/29 21:23:51;;;;;;;1.23;0.88;;;;;;;15.52;55.97;100061.59;19743510;30;20064;-73
2021/12/29 21:33:54;;;;;;;0.88;0.60;;;;;;;16.09;56.44;100184.38;19743484;30;20060;-73
2021/12/29 21:43:56;;;;;;;1.67;0.75;;;;;;;16.08;56.61;100225.63;19742504;30;20048;-73
2021/12/29 21:53:58;;;;;;;3.28;1.00;;;;;;;15.57;56.48;100168.47;19741857;30;20063;-73
2021/12/29 22:04:00;;;;;;;2.38;0.88;;;;;;;15.81;56.35;100235.16;19740123;30;20085;-73
2021/12/29 22:14:02;;;;;;;3.22;1.10;;;;;;;15.19;56.49;100151.31;19740408;30;20835;-72
2021/12/29 22:24:04;;;;;;;1.38;0.80;;;;;;;15.29;56.76;100167.44;19723768;30;20490;-72
2021/12/29 22:34:07;;;;;;;2.00;0.98;;;;;;;15.78;56.70;100289.13;19740038;30;20056;-72
2021/12/29 22:44:09;;;;;;;2.88;1.00;;;;;;;15.20;56.64;100223.56;19752874;30;20060;-72
2021/12/29 22:54:11;;;;;;;1.85;0.73;;;;;;;15.68;56.81;100333.88;19737619;30;20056;-72
2021/12/29 23:04:13;;;;;;;3.65;0.90;;;;;;;15.23;57.19;100298.38;19737008;30;20393;-72
2021/12/29 23:14:16;;;;;;;2.70;0.95;;;;;;;15.58;57.02;100389.34;19720607;30;20060;-72
2021/12/29 23:24:27;;;;;;;3.75;0.95;;;;;;;14.82;57.23;100281.34;19736186;30;20058;-72
2021/12/29 23:34:30;;;;;;;2.88;0.90;;;;;;;15.49;57.13;100412.44;19735406;30;20055;-72
2021/12/29 23:44:32;;;;;;;3.38;1.00;;;;;;;15.36;57.38;100391.19;19736001;30;20059;-72
2021/12/29 23:54:34;;;;;;;3.97;1.77;;;;;;;15.02;57.51;100352.03;19735057;30;20055;-72
